createdAt,value
2018-01-13T00:00:25.259Z,100627.70
2018-01-13T00:02:59.161Z,100633.45
2018-01-13T00:05:30.462Z,100632.56
2018-01-13T00:08:02.140Z,100632.17
2018-01-13T00:10:34.743Z,100626.55
2018-01-13T00:13:08.133Z,100624.70
2018-01-13T00:15:39.170Z,100622.41
2018-01-13T00:18:11.545Z,100618.60
2018-01-13T00:20:42.604Z,100620.02
2018-01-13T00:23:13.798Z,100623.73
2018-01-13T00:25:46.000Z,100620.27
2018-01-13T00:28:17.033Z,100619.09
2018-01-13T00:30:50.053Z,100621.28
2018-01-13T00:33:21.373Z,100627.33
2018-01-13T00:35:54.944Z,100623.45
2018-01-13T00:38:26.523Z,100620.86
2018-01-13T00:40:58.944Z,100590.88
2018-01-13T00:43:30.527Z,100620.13
2018-01-13T00:46:02.472Z,100618.64
2018-01-13T00:48:33.450Z,100618.88
2018-01-13T00:51:04.586Z,100622.87
2018-01-13T00:53:35.680Z,100622.91
2018-01-13T00:56:07.208Z,100617.98
2018-01-13T00:58:38.838Z,100627.67
2018-01-13T01:01:24.087Z,100616.45
2018-01-13T01:04:10.875Z,100610.45
2018-01-13T01:06:49.790Z,100607.05
2018-01-13T01:09:21.633Z,100619.67
2018-01-13T01:12:06.274Z,100602.27
2018-01-13T01:20:27.921Z,100622.17
2018-01-13T01:23:35.066Z,100603.72
2018-01-13T01:26:16.669Z,100618.25
2018-01-13T01:29:10.295Z,100617.00
2018-01-13T01:34:45.856Z,100613.41
2018-01-13T01:37:18.452Z,100620.31
2018-01-13T01:39:50.396Z,100615.27
2018-01-13T01:42:22.215Z,100609.03
2018-01-13T01:44:56.010Z,100608.55
2018-01-13T01:47:27.585Z,100615.78
2018-01-13T01:49:59.837Z,100615.24
2018-01-13T01:52:32.006Z,100617.61
2018-01-13T01:55:03.978Z,100623.28
2018-01-13T01:57:35.854Z,100627.27
2018-01-13T02:00:07.661Z,100624.88
2018-01-13T02:02:38.988Z,100632.61
2018-01-13T02:05:10.791Z,100626.33
2018-01-13T02:07:42.489Z,100630.19
2018-01-13T02:10:15.395Z,100623.98
2018-01-13T02:12:47.761Z,100624.70
2018-01-13T02:15:19.887Z,100617.25
2018-01-13T02:17:53.902Z,100624.84
2018-01-13T02:20:26.681Z,100624.96
2018-01-13T02:22:59.472Z,100614.57
2018-01-13T02:25:32.491Z,100622.64
2018-01-13T02:28:07.139Z,100622.20
2018-01-13T02:30:40.833Z,100622.17
2018-01-13T02:33:12.668Z,100618.74
2018-01-13T02:35:44.932Z,100614.02
2018-01-13T02:38:17.416Z,100621.01
2018-01-13T02:40:49.135Z,100617.86
2018-01-13T02:43:20.812Z,100614.69
2018-01-13T02:45:55.561Z,100613.68
2018-01-13T02:48:27.382Z,100617.40
2018-01-13T02:51:00.476Z,100578.57
2018-01-13T02:53:32.870Z,100625.12
2018-01-13T02:56:05.666Z,100626.09
2018-01-13T02:58:37.885Z,100623.58
2018-01-13T03:01:09.936Z,100623.05
2018-01-13T03:03:42.971Z,100613.61
2018-01-13T03:06:16.704Z,100616.80
2018-01-13T03:08:52.777Z,100613.63
2018-01-13T03:11:25.043Z,100611.57
2018-01-13T03:13:59.593Z,100609.95
2018-01-13T03:16:32.160Z,100608.48
2018-01-13T03:19:04.178Z,100611.41
2018-01-13T03:21:36.393Z,100609.51
2018-01-13T03:24:07.533Z,100609.97
2018-01-13T03:26:39.809Z,100609.63
2018-01-13T03:29:11.688Z,100604.73
2018-01-13T03:31:44.929Z,100607.09
2018-01-13T03:34:18.907Z,100606.52
2018-01-13T03:36:53.803Z,100604.50
2018-01-13T03:39:26.320Z,100593.00
2018-01-13T03:41:58.379Z,100601.34
2018-01-13T03:44:30.027Z,100602.83
2018-01-13T03:47:01.466Z,100603.08
2018-01-13T03:49:32.885Z,100598.72
2018-01-13T03:52:04.868Z,100596.17
2018-01-13T03:54:37.589Z,100593.64
2018-01-13T03:57:09.664Z,100598.77
2018-01-13T03:59:41.506Z,100597.22
2018-01-13T04:02:14.771Z,100594.80
2018-01-13T04:04:48.149Z,100592.41
2018-01-13T04:07:20.124Z,100590.44
2018-01-13T04:09:53.447Z,100592.00
2018-01-13T04:12:27.467Z,100588.59
2018-01-13T04:14:59.818Z,100591.69
2018-01-13T04:17:31.459Z,100591.37
2018-01-13T04:20:03.611Z,100592.75
2018-01-13T04:22:35.476Z,100593.91
2018-01-13T04:25:07.513Z,100594.70
2018-01-13T04:27:39.456Z,100591.12
2018-01-13T04:30:12.438Z,100588.23
2018-01-13T04:32:43.966Z,100588.77
2018-01-13T04:35:16.648Z,100589.11
2018-01-13T04:37:48.783Z,100588.81
2018-01-13T04:40:20.564Z,100590.77
2018-01-13T04:42:56.287Z,100587.09
2018-01-13T04:45:27.964Z,100584.05
2018-01-13T04:47:59.680Z,100587.48
2018-01-13T04:50:31.434Z,100586.13
2018-01-13T04:53:04.790Z,100591.08
2018-01-13T04:55:37.352Z,100591.19
2018-01-13T04:58:10.222Z,100586.28
2018-01-13T05:00:41.909Z,100589.34
2018-01-13T05:03:13.760Z,100588.97
2018-01-13T05:05:45.886Z,100587.78
2018-01-13T05:08:17.265Z,100587.79
2018-01-13T05:10:49.925Z,100590.63
2018-01-13T05:13:22.761Z,100590.07
2018-01-13T05:15:55.968Z,100590.31
2018-01-13T05:18:28.850Z,100586.80
2018-01-13T05:21:00.723Z,100589.91
2018-01-13T05:23:32.294Z,100593.05
2018-01-13T05:26:04.832Z,100585.23
2018-01-13T05:28:36.547Z,100592.19
2018-01-13T05:31:08.207Z,100595.67
2018-01-13T05:33:39.944Z,100590.63
2018-01-13T05:36:12.666Z,100596.17
2018-01-13T05:38:44.949Z,100598.05
2018-01-13T05:41:17.678Z,100599.01
2018-01-13T05:43:48.711Z,100596.59
2018-01-13T05:46:20.388Z,100594.70
2018-01-13T05:48:54.180Z,100593.63
2018-01-13T05:51:26.208Z,100595.67
2018-01-13T05:54:01.578Z,100588.47
2018-01-13T05:56:33.056Z,100592.00
2018-01-13T05:59:04.988Z,100589.42
2018-01-13T06:01:37.186Z,100595.78
2018-01-13T06:04:09.501Z,100588.42
2018-01-13T06:06:42.982Z,100590.88
2018-01-13T06:09:17.837Z,100584.50
2018-01-13T06:11:50.440Z,100594.45
2018-01-13T06:14:22.919Z,100589.97
2018-01-13T06:16:55.673Z,100594.59
2018-01-13T06:19:27.598Z,100588.77
2018-01-13T06:21:59.779Z,100598.20
2018-01-13T06:24:31.633Z,100597.23
2018-01-13T06:27:04.717Z,100586.63
2018-01-13T06:29:36.340Z,100585.91
2018-01-13T06:32:08.338Z,100588.34
2018-01-13T06:34:40.160Z,100582.58
2018-01-13T06:37:13.170Z,100583.78
2018-01-13T06:39:45.571Z,100585.96
2018-01-13T06:42:18.364Z,100582.72
2018-01-13T06:44:50.124Z,100589.09
2018-01-13T06:47:23.236Z,100587.52
2018-01-13T06:49:56.488Z,100584.64
2018-01-13T06:52:28.869Z,100578.64
2018-01-13T06:55:00.916Z,100580.38
2018-01-13T06:57:34.095Z,100584.73
2018-01-13T07:00:06.778Z,100581.24
2018-01-13T07:02:38.650Z,100591.77
2018-01-13T07:05:10.099Z,100581.12
2018-01-13T07:07:43.704Z,100578.97
2018-01-13T07:10:15.892Z,100594.55
2018-01-13T07:12:47.555Z,100591.19
2018-01-13T07:15:19.606Z,100586.87
2018-01-13T07:17:52.763Z,100583.87
2018-01-13T07:20:25.420Z,100587.91
2018-01-13T07:22:59.492Z,100588.10
2018-01-13T07:25:31.119Z,100586.72
2018-01-13T07:28:03.110Z,100581.57
2018-01-13T07:30:35.138Z,100583.34
2018-01-13T07:33:06.468Z,100581.50
2018-01-13T07:35:39.106Z,100583.86
2018-01-13T07:38:11.238Z,100586.64
2018-01-13T07:40:43.343Z,100585.48
2018-01-13T07:43:15.862Z,100589.24
2018-01-13T07:45:48.721Z,100582.16
2018-01-13T07:48:21.387Z,100588.41
2018-01-13T07:50:54.644Z,100589.24
2018-01-13T07:53:27.958Z,100597.88
2018-01-13T07:56:00.163Z,100595.78
2018-01-13T07:58:31.869Z,100595.38
2018-01-13T08:01:04.974Z,100587.88
2018-01-13T08:03:37.055Z,100588.08
2018-01-13T08:06:08.822Z,100592.33
2018-01-13T08:08:40.787Z,100593.81
2018-01-13T08:11:13.851Z,100589.10
2018-01-13T08:13:47.747Z,100593.39
2018-01-13T08:16:23.197Z,100594.31
2018-01-13T08:18:57.752Z,100589.48
2018-01-13T08:21:31.909Z,100589.30
2018-01-13T08:24:06.370Z,100594.03
2018-01-13T08:26:38.605Z,100589.97
2018-01-13T08:29:10.142Z,100584.22
2018-01-13T08:31:42.145Z,100590.85
2018-01-13T08:34:15.359Z,100596.72
2018-01-13T08:36:47.113Z,100593.23
2018-01-13T08:39:22.972Z,100597.95
2018-01-13T08:41:56.246Z,100592.58
2018-01-13T08:44:29.264Z,100593.97
2018-01-13T08:47:00.657Z,100591.91
2018-01-13T08:49:33.024Z,100594.41
2018-01-13T08:52:05.758Z,100593.87
2018-01-13T08:54:37.055Z,100597.22
2018-01-13T08:57:08.296Z,100600.59
2018-01-13T08:59:40.583Z,100598.88
2018-01-13T09:02:12.640Z,100602.70
2018-01-13T09:04:44.810Z,100598.94
2018-01-13T09:07:19.544Z,100602.83
2018-01-13T09:09:55.658Z,100598.36
2018-01-13T09:12:28.114Z,100596.45
2018-01-13T09:14:59.609Z,100572.45
2018-01-13T09:17:32.009Z,100610.20
2018-01-13T09:20:04.252Z,100607.50
2018-01-13T09:22:35.822Z,100603.67
2018-01-13T09:25:08.535Z,100604.50
2018-01-13T09:27:39.894Z,100608.48
2018-01-13T09:30:11.555Z,100601.66
2018-01-13T09:32:43.040Z,100605.86
2018-01-13T09:35:15.516Z,100604.81
2018-01-13T09:37:47.592Z,100607.83
2018-01-13T09:40:24.089Z,100609.45
2018-01-13T09:42:59.474Z,100612.09
2018-01-13T09:45:32.476Z,100607.08
2018-01-13T09:48:03.735Z,100610.15
2018-01-13T09:50:35.181Z,100603.56
2018-01-13T09:53:07.846Z,100604.15
2018-01-13T09:55:39.155Z,100601.83
2018-01-13T09:58:11.271Z,100597.94
2018-01-13T10:00:42.868Z,100601.09
2018-01-13T10:03:15.250Z,100605.39
2018-01-13T10:05:46.827Z,100605.70
2018-01-13T10:08:18.202Z,100606.20
2018-01-13T10:10:53.278Z,100606.50
2018-01-13T10:13:25.610Z,100610.27
2018-01-13T10:16:01.918Z,100606.70
2018-01-13T10:18:34.568Z,100595.81
2018-01-13T10:21:06.652Z,100537.05
2018-01-13T10:23:38.485Z,100567.98
2018-01-13T10:26:10.407Z,100598.66
2018-01-13T10:28:44.383Z,100601.05
2018-01-13T10:31:16.095Z,100598.12
2018-01-13T10:33:49.233Z,100724.67
2018-01-13T10:36:22.684Z,100593.66
2018-01-13T10:38:59.021Z,100592.41
2018-01-13T10:41:30.248Z,100597.14
2018-01-13T10:44:03.150Z,100593.96
2018-01-13T10:46:35.048Z,100590.53
2018-01-13T10:49:07.583Z,100584.07
2018-01-13T10:51:39.718Z,100591.17
2018-01-13T10:54:11.244Z,100496.25
2018-01-13T10:56:43.020Z,100581.91
2018-01-13T10:59:15.842Z,100548.90
2018-01-13T11:01:47.348Z,100580.36
2018-01-13T11:04:19.531Z,100495.88
2018-01-13T11:06:50.861Z,100580.98
2018-01-13T11:09:25.098Z,100570.66
2018-01-13T11:11:58.260Z,100545.69
2018-01-13T11:14:30.460Z,100621.53
2018-01-13T11:17:04.610Z,100565.27
2018-01-13T11:19:37.809Z,100565.87
2018-01-13T11:22:09.627Z,100565.83
2018-01-13T11:24:42.657Z,100559.47
2018-01-13T11:27:14.964Z,100537.46
2018-01-13T11:29:47.138Z,100619.89
2018-01-13T11:32:19.850Z,100509.47
2018-01-13T11:34:53.258Z,100562.30
2018-01-13T11:37:25.407Z,100569.11
2018-01-13T11:40:00.945Z,100532.05
2018-01-13T11:42:32.582Z,100483.66
2018-01-13T11:45:04.808Z,100558.86
2018-01-13T11:47:36.645Z,100538.59
2018-01-13T11:50:07.690Z,100593.45
2018-01-13T11:55:40.048Z,100546.06
2018-01-13T11:58:11.418Z,100516.98
2018-01-13T12:00:42.582Z,100543.85
2018-01-13T12:03:14.287Z,100548.28
2018-01-13T12:05:46.036Z,100550.77
2018-01-13T12:08:17.244Z,100469.41
2018-01-13T12:10:49.101Z,100541.42
2018-01-13T12:13:20.908Z,100542.39
2018-01-13T12:15:54.551Z,100546.66
2018-01-13T12:18:26.312Z,100537.35
2018-01-13T12:21:03.586Z,100540.23
2018-01-13T12:23:37.336Z,100530.42
2018-01-13T12:26:12.577Z,100577.04
2018-01-13T12:28:44.350Z,100534.17
2018-01-13T12:31:15.831Z,100532.71
2018-01-13T12:33:48.898Z,100539.41
2018-01-13T12:36:22.386Z,100491.61
2018-01-13T12:38:55.270Z,100527.70
2018-01-13T12:41:27.747Z,100528.04
2018-01-13T12:43:59.372Z,100521.91
2018-01-13T12:46:31.435Z,100444.67
2018-01-13T12:49:04.515Z,100523.10
2018-01-13T12:51:36.383Z,100523.66
2018-01-13T12:54:27.331Z,100359.55
2018-01-13T12:57:08.310Z,100229.37
2018-01-13T12:59:42.895Z,100517.83
2018-01-13T13:02:21.278Z,100495.36
2018-01-13T13:05:13.216Z,100436.05
2018-01-13T13:07:45.763Z,100522.45
2018-01-13T13:10:19.463Z,100520.78
2018-01-13T13:12:51.561Z,100525.58
2018-01-13T13:15:25.758Z,100508.35
2018-01-13T13:17:58.145Z,100506.26
2018-01-13T13:20:33.496Z,100451.74
2018-01-13T13:23:06.051Z,100486.67
2018-01-13T13:25:37.524Z,100497.19
2018-01-13T13:28:09.430Z,100453.78
2018-01-13T13:31:18.581Z,100452.76
2018-01-13T13:39:49.720Z,100324.18
2018-01-13T13:42:43.984Z,100457.40
2018-01-13T13:45:16.172Z,100504.19
2018-01-13T13:47:47.879Z,100505.52
2018-01-13T13:50:21.977Z,100502.48
2018-01-13T13:52:53.529Z,100507.66
2018-01-13T13:55:25.201Z,100504.97
2018-01-13T13:57:57.708Z,100513.02
2018-01-13T14:00:31.463Z,100507.42
2018-01-13T14:03:03.012Z,100506.64
2018-01-13T14:05:36.179Z,100500.87
2018-01-13T14:08:09.691Z,100502.94
2018-01-13T14:10:42.126Z,100499.53
2018-01-13T14:13:15.363Z,100496.34
2018-01-13T14:15:47.633Z,100502.17
2018-01-13T14:18:19.924Z,100485.19
2018-01-13T14:20:52.477Z,100511.36
2018-01-13T14:23:25.626Z,100512.63
2018-01-13T14:25:57.177Z,100511.93
2018-01-13T14:28:52.028Z,100426.72
2018-01-13T14:31:24.535Z,100507.77
2018-01-13T14:33:56.979Z,100510.22
2018-01-13T14:39:08.003Z,100505.18
2018-01-13T14:41:40.972Z,100501.53
2018-01-13T14:44:13.916Z,100506.14
2018-01-13T14:46:45.899Z,100481.09
2018-01-13T14:49:19.569Z,100511.25
2018-01-13T14:51:52.869Z,100510.73
2018-01-13T14:54:24.606Z,100487.56
2018-01-13T14:56:56.252Z,100476.61
2018-01-13T14:59:27.753Z,100493.81
2018-01-13T15:01:59.156Z,100541.94
2018-01-13T15:04:31.263Z,100502.66
2018-01-13T15:07:03.332Z,100498.27
2018-01-13T15:09:36.026Z,100501.75
2018-01-13T15:12:07.980Z,100501.52
2018-01-13T15:14:39.948Z,100495.79
2018-01-13T15:17:11.828Z,100499.55
2018-01-13T15:19:43.550Z,100501.83
2018-01-13T15:22:14.872Z,100502.64
2018-01-13T15:24:46.277Z,100504.70
2018-01-13T15:27:20.643Z,100502.77
2018-01-13T15:29:51.788Z,100500.03
2018-01-13T15:32:24.948Z,100509.73
2018-01-13T15:34:56.649Z,100506.39
2018-01-13T15:37:27.735Z,100510.98
2018-01-13T15:39:59.069Z,100514.73
2018-01-13T15:42:31.228Z,100516.64
2018-01-13T15:45:03.437Z,100489.33
2018-01-13T15:47:37.753Z,100462.66
2018-01-13T15:50:12.155Z,100568.30
2018-01-13T15:52:44.826Z,100489.66
2018-01-13T15:55:17.191Z,100511.80
2018-01-13T15:57:50.274Z,100512.12
2018-01-13T16:00:21.904Z,100518.34
2018-01-13T16:02:58.293Z,100488.91
2018-01-13T16:05:30.280Z,100519.55
2018-01-13T16:08:05.753Z,100527.12
2018-01-13T16:13:25.498Z,100492.38
2018-01-13T16:15:59.885Z,100491.23
2018-01-13T16:18:43.371Z,100489.61
2018-01-13T16:21:22.237Z,100525.95
2018-01-13T16:24:03.746Z,100522.28
2018-01-13T16:26:35.429Z,100518.19
2018-01-13T16:29:07.338Z,100495.57
2018-01-13T16:31:39.152Z,100515.66
2018-01-13T16:34:10.874Z,100518.51
2018-01-13T16:36:42.564Z,100525.94
2018-01-13T16:39:33.487Z,100415.44
2018-01-13T16:42:06.133Z,100617.11
2018-01-13T16:44:37.930Z,100510.92
2018-01-13T16:47:09.981Z,100505.88
2018-01-13T16:49:41.397Z,100513.40
2018-01-13T16:52:12.638Z,100503.63
2018-01-13T16:54:44.179Z,100500.48
2018-01-13T16:57:26.513Z,100556.98
2018-01-13T17:52:01.943Z,100472.03
2018-01-13T17:54:34.006Z,100463.62
2018-01-13T17:57:06.596Z,100456.86
2018-01-13T17:59:38.215Z,100456.02
2018-01-13T18:02:10.370Z,100437.64
2018-01-13T18:04:42.467Z,100467.52
2018-01-13T18:07:13.648Z,100474.14
2018-01-13T18:09:44.979Z,100472.17
2018-01-13T18:12:16.827Z,100459.58
2018-01-13T18:17:27.911Z,100463.09
2018-01-13T18:20:00.222Z,100462.66
2018-01-13T18:22:31.684Z,100461.55
2018-01-13T18:25:04.870Z,100464.03
2018-01-13T18:27:36.100Z,100392.91
2018-01-13T18:30:08.013Z,100450.56
2018-01-13T18:32:39.914Z,100469.47
2018-01-13T18:35:12.088Z,100468.22
2018-01-13T18:37:46.478Z,100464.02
2018-01-13T18:40:23.237Z,100456.35
2018-01-13T18:42:55.711Z,100455.05
2018-01-13T18:45:27.164Z,100457.92
2018-01-13T18:47:59.051Z,100457.98
2018-01-13T18:50:31.335Z,100451.83
2018-01-13T18:53:07.252Z,100453.85
2018-01-13T18:55:39.766Z,100444.88
2018-01-13T18:58:14.802Z,100453.37
2018-01-13T19:00:47.644Z,100431.46
2018-01-13T19:03:19.021Z,100457.92
2018-01-13T19:05:52.815Z,100427.92
2018-01-13T19:08:25.701Z,100454.30
2018-01-13T19:10:57.124Z,100453.34
2018-01-13T19:13:28.918Z,100459.07
2018-01-13T19:16:01.897Z,100447.37
2018-01-13T19:18:40.146Z,100443.34
2018-01-13T19:21:11.587Z,100441.05
2018-01-13T19:23:43.769Z,100443.36
2018-01-13T19:26:17.832Z,100442.33
2018-01-13T19:28:50.006Z,100445.07
2018-01-13T19:31:23.090Z,100440.08
2018-01-13T19:33:57.939Z,100476.11
2018-01-13T19:36:30.030Z,100441.13
2018-01-13T19:39:02.698Z,100411.54
2018-01-13T19:41:36.471Z,100442.69
2018-01-13T19:44:10.955Z,100363.73
2018-01-13T19:46:55.912Z,100412.34
2018-01-13T19:49:30.667Z,100337.95
2018-01-13T19:52:03.199Z,100425.84
2018-01-13T19:54:35.826Z,100404.74
2018-01-13T19:57:08.831Z,100430.66
2018-01-13T19:59:41.256Z,100468.73
2018-01-13T20:02:13.780Z,100470.44
2018-01-13T20:04:47.262Z,100424.70
2018-01-13T20:07:19.145Z,100428.34
2018-01-13T20:09:51.372Z,100427.30
2018-01-13T20:12:22.673Z,100403.22
2018-01-13T20:14:57.530Z,100425.02
2018-01-13T20:17:29.395Z,100425.40
2018-01-13T20:20:01.821Z,100416.93
2018-01-13T20:22:34.941Z,100417.22
2018-01-13T20:25:09.109Z,100424.19
2018-01-13T20:27:43.878Z,100400.17
2018-01-13T20:30:15.388Z,100395.80
2018-01-13T20:32:46.644Z,100417.80
2018-01-13T20:35:19.421Z,100427.34
2018-01-13T20:37:50.660Z,100421.00
2018-01-13T20:40:22.271Z,100405.09
2018-01-13T20:42:56.657Z,100422.89
2018-01-13T20:45:29.275Z,100425.03
2018-01-13T20:48:02.150Z,100497.92
2018-01-13T20:50:33.826Z,100400.98
2018-01-13T20:53:08.109Z,100418.16
2018-01-13T20:55:39.984Z,100411.89
2018-01-13T20:58:12.970Z,100390.92
2018-01-13T21:00:44.805Z,100409.50
2018-01-13T21:03:17.071Z,100406.59
2018-01-13T21:05:54.513Z,100377.67
2018-01-13T21:08:40.510Z,100334.60
2018-01-13T21:13:59.894Z,100406.86
2018-01-13T21:16:32.480Z,100412.67
2018-01-13T21:19:04.349Z,100409.45
2018-01-13T21:21:36.103Z,100402.87
2018-01-13T21:24:07.794Z,100418.94
2018-01-13T21:26:39.979Z,100410.78
2018-01-13T21:29:15.402Z,100398.88
2018-01-13T21:31:48.172Z,100409.36
2018-01-13T21:34:20.459Z,100412.21
2018-01-13T21:36:53.157Z,100405.92
2018-01-13T21:39:25.381Z,100413.59
2018-01-13T21:42:05.242Z,100435.43
2018-01-13T21:44:37.123Z,100398.92
2018-01-13T21:47:10.034Z,100421.79
2018-01-13T21:49:42.253Z,100364.30
2018-01-13T21:52:13.787Z,100420.98
2018-01-13T21:54:45.898Z,100386.18
2018-01-13T21:57:17.727Z,100416.88
2018-01-13T21:59:50.558Z,100419.25
2018-01-13T22:02:22.761Z,100424.53
2018-01-13T22:04:55.895Z,100393.67
2018-01-13T22:07:29.327Z,100426.80
2018-01-13T22:10:01.438Z,100358.23
2018-01-13T22:12:33.081Z,100427.56
2018-01-13T22:15:05.304Z,100426.58
2018-01-13T22:17:37.128Z,100477.47
2018-01-13T22:20:09.504Z,100426.91
2018-01-13T22:22:47.266Z,100422.16
2018-01-13T22:25:19.915Z,100374.65
2018-01-13T22:27:51.441Z,100418.53
2018-01-13T22:30:24.773Z,100418.41
2018-01-13T22:33:02.418Z,100320.56
2018-01-13T22:35:39.066Z,100413.55
2018-01-13T22:38:10.680Z,100464.17
2018-01-13T22:40:42.519Z,100407.41
2018-01-13T22:43:15.254Z,100383.48
2018-01-13T22:45:48.073Z,100366.53
2018-01-13T22:48:24.577Z,100412.84
2018-01-13T22:50:56.672Z,100376.69
2018-01-13T22:53:29.467Z,100390.86
2018-01-13T22:56:03.093Z,100403.86
2018-01-13T22:58:39.558Z,100400.11
2018-01-13T23:01:14.149Z,100397.30
2018-01-13T23:03:46.291Z,100380.16
2018-01-13T23:06:17.962Z,100381.51
2018-01-13T23:08:49.091Z,100396.72
2018-01-13T23:11:22.947Z,100399.73
2018-01-13T23:13:55.204Z,100396.86
2018-01-13T23:16:27.357Z,100391.39
2018-01-13T23:18:58.939Z,100384.98
2018-01-13T23:21:30.410Z,100378.59
2018-01-13T23:24:03.137Z,100355.64
2018-01-13T23:26:37.613Z,100384.25
2018-01-13T23:29:09.117Z,100384.14
2018-01-13T23:31:40.148Z,100387.22
2018-01-13T23:34:13.154Z,100361.63
2018-01-13T23:36:51.873Z,100309.72
2018-01-13T23:39:23.863Z,100384.17
